createdAt,value
2023-02-17T00:00:57.195Z,9.33
2023-02-17T00:03:25.329Z,9.60
2023-02-17T00:05:53.337Z,8.90
2023-02-17T00:08:21.543Z,8.80
2023-02-17T00:10:56.960Z,10.63
2023-02-17T00:13:26.177Z,9.10
2023-02-17T00:15:54.201Z,9.60
2023-02-17T00:18:22.637Z,8.73
2023-02-17T00:20:50.813Z,8.40
2023-02-17T00:23:18.846Z,9.07
2023-02-17T00:25:46.863Z,8.40
2023-02-17T00:28:15.077Z,8.63
2023-02-17T00:30:44.262Z,9.03
2023-02-17T00:33:12.180Z,8.57
2023-02-17T00:35:43.364Z,8.70
2023-02-17T00:38:11.239Z,9.47
2023-02-17T00:40:39.907Z,9.30
2023-02-17T00:43:07.687Z,8.53
2023-02-17T00:45:35.523Z,9.40
2023-02-17T00:48:04.930Z,8.80
2023-02-17T00:50:32.733Z,9.10
2023-02-17T00:53:00.561Z,8.73
2023-02-17T00:55:28.740Z,8.80
2023-02-17T00:57:56.920Z,9.33
2023-02-17T01:00:24.838Z,8.50
2023-02-17T01:02:54.292Z,8.80
2023-02-17T01:05:23.529Z,8.77
2023-02-17T01:07:51.340Z,10.17
2023-02-17T01:10:19.537Z,8.70
2023-02-17T01:12:48.184Z,8.63
2023-02-17T01:15:16.109Z,9.30
2023-02-17T01:17:43.945Z,8.83
2023-02-17T01:20:12.249Z,8.83
2023-02-17T01:22:41.447Z,9.70
2023-02-17T01:25:09.602Z,9.60
2023-02-17T01:27:37.833Z,8.93
2023-02-17T01:30:06.402Z,9.70
2023-02-17T01:32:34.229Z,9.40
2023-02-17T01:35:02.071Z,10.10
2023-02-17T01:37:30.151Z,9.63
2023-02-17T01:39:59.307Z,8.57
2023-02-17T01:42:27.412Z,9.10
2023-02-17T01:45:33.390Z,9.17
2023-02-17T01:48:04.392Z,9.33
2023-02-17T01:50:35.695Z,8.67
2023-02-17T01:53:04.689Z,9.30
2023-02-17T01:55:34.838Z,8.83
2023-02-17T01:58:07.863Z,9.20
2023-02-17T02:00:37.427Z,9.00
2023-02-17T02:03:08.049Z,9.20
2023-02-17T02:05:37.554Z,9.43
2023-02-17T02:08:06.402Z,9.70
2023-02-17T02:10:36.062Z,8.77
2023-02-17T02:13:06.832Z,8.57
2023-02-17T02:15:39.730Z,9.23
2023-02-17T02:18:32.857Z,8.67
2023-02-17T02:21:28.057Z,8.33
2023-02-17T02:24:13.407Z,8.20
2023-02-17T02:27:19.980Z,9.03
2023-02-17T02:30:26.809Z,9.00
2023-02-17T02:33:02.468Z,9.70
2023-02-17T02:35:36.228Z,9.07
2023-02-17T02:38:08.063Z,7.87
2023-02-17T02:40:38.837Z,8.20
2023-02-17T02:43:08.222Z,8.00
2023-02-17T02:45:38.978Z,9.77
2023-02-17T02:48:08.455Z,8.87
2023-02-17T02:50:49.048Z,8.87
2023-02-17T02:53:32.265Z,8.00
2023-02-17T02:56:06.499Z,8.90
2023-02-17T02:58:41.270Z,7.80
2023-02-17T03:01:14.536Z,8.20
2023-02-17T03:03:48.451Z,8.83
2023-02-17T03:06:20.122Z,8.50
2023-02-17T03:08:50.867Z,8.57
2023-02-17T03:11:32.246Z,8.03
2023-02-17T03:14:03.155Z,7.77
2023-02-17T03:16:31.542Z,9.00
2023-02-17T03:19:00.769Z,7.63
2023-02-17T03:21:35.329Z,9.20
2023-02-17T03:24:03.369Z,7.73
2023-02-17T03:26:31.665Z,7.73
2023-02-17T03:28:59.678Z,8.53
2023-02-17T03:31:30.627Z,8.17
2023-02-17T03:34:00.017Z,8.43
2023-02-17T03:36:29.924Z,7.47
2023-02-17T03:38:58.257Z,7.07
2023-02-17T03:41:26.385Z,7.53
2023-02-17T03:43:54.203Z,8.13
2023-02-17T03:46:22.086Z,7.87
2023-02-17T03:48:49.918Z,8.67
2023-02-17T03:51:21.520Z,7.93
2023-02-17T03:53:49.378Z,7.80
2023-02-17T03:56:17.882Z,7.30
2023-02-17T03:58:45.904Z,7.60
2023-02-17T04:01:14.229Z,7.10
2023-02-17T04:03:42.516Z,7.00
2023-02-17T04:06:11.384Z,7.67
2023-02-17T04:08:41.166Z,7.27
2023-02-17T04:11:10.324Z,7.40
2023-02-17T04:13:39.012Z,7.63
2023-02-17T04:16:08.326Z,7.40
2023-02-17T04:18:36.720Z,7.40
2023-02-17T04:21:05.062Z,7.10
2023-02-17T04:23:32.898Z,7.50
2023-02-17T04:26:02.153Z,5.80
2023-02-17T04:28:32.925Z,6.70
2023-02-17T04:31:01.442Z,6.50
2023-02-17T04:33:29.722Z,6.37
2023-02-17T04:35:59.732Z,6.13
2023-02-17T04:38:28.515Z,5.30
2023-02-17T04:40:56.956Z,6.17
2023-02-17T04:43:27.101Z,6.20
2023-02-17T04:45:55.346Z,6.07
2023-02-17T04:48:23.428Z,6.40
2023-02-17T04:50:51.267Z,5.87
2023-02-17T04:53:19.281Z,5.40
2023-02-17T04:55:51.015Z,6.10
2023-02-17T04:58:19.505Z,6.20
2023-02-17T05:00:51.119Z,5.80
2023-02-17T05:03:19.867Z,6.00
2023-02-17T05:05:47.706Z,5.97
2023-02-17T05:08:15.866Z,5.67
2023-02-17T05:10:43.804Z,5.37
2023-02-17T05:13:11.660Z,6.23
2023-02-17T05:15:39.543Z,5.90
2023-02-17T05:18:08.754Z,5.63
2023-02-17T05:20:36.600Z,5.00
2023-02-17T05:23:04.444Z,5.70
2023-02-17T05:25:32.680Z,5.77
2023-02-17T05:28:00.483Z,6.00
2023-02-17T05:30:28.489Z,5.30
2023-02-17T05:32:56.532Z,5.53
2023-02-17T05:35:25.838Z,4.77
2023-02-17T05:37:53.706Z,5.00
2023-02-17T05:40:21.844Z,4.90
2023-02-17T05:42:49.823Z,5.27
2023-02-17T05:45:18.250Z,5.17
2023-02-17T05:47:46.084Z,4.23
2023-02-17T05:50:13.967Z,4.97
2023-02-17T05:52:43.130Z,4.77
2023-02-17T05:55:11.026Z,5.40
2023-02-17T05:57:38.863Z,5.47
2023-02-17T06:00:08.070Z,5.60
2023-02-17T06:02:41.823Z,5.10
2023-02-17T06:05:11.078Z,4.50
2023-02-17T06:07:39.030Z,5.10
2023-02-17T06:10:09.755Z,4.90
2023-02-17T06:12:37.587Z,5.17
2023-02-17T06:15:05.767Z,4.80
2023-02-17T06:17:33.693Z,5.20
2023-02-17T06:20:01.536Z,5.00
2023-02-17T06:22:29.384Z,5.20
2023-02-17T06:24:57.718Z,5.10
2023-02-17T06:27:27.127Z,4.20
2023-02-17T06:29:55.473Z,4.70
2023-02-17T06:32:24.357Z,4.40
2023-02-17T06:34:52.245Z,5.30
2023-02-17T06:37:20.086Z,4.67
2023-02-17T06:39:47.913Z,4.37
2023-02-17T06:42:15.718Z,4.57
2023-02-17T06:44:45.184Z,3.97
2023-02-17T06:47:13.027Z,4.80
2023-02-17T06:49:41.116Z,5.10
2023-02-17T06:52:10.162Z,4.90
2023-02-17T06:54:38.041Z,5.00
2023-02-17T06:57:05.855Z,3.93
2023-02-17T06:59:33.996Z,4.33
2023-02-17T07:02:03.336Z,4.73
2023-02-17T07:04:31.804Z,5.10
2023-02-17T07:06:59.647Z,5.77
2023-02-17T07:09:27.550Z,4.93
2023-02-17T07:11:55.374Z,4.87
2023-02-17T07:14:26.736Z,5.43
2023-02-17T07:16:54.809Z,4.90
2023-02-17T07:19:23.970Z,5.20
2023-02-17T07:21:51.825Z,4.80
2023-02-17T07:24:20.110Z,5.03
2023-02-17T07:26:48.015Z,5.90
2023-02-17T07:29:15.955Z,4.83
2023-02-17T07:31:44.022Z,4.90
2023-02-17T07:34:12.046Z,4.80
2023-02-17T07:36:41.218Z,5.57
2023-02-17T07:39:09.157Z,5.47
2023-02-17T07:41:37.183Z,5.23
2023-02-17T07:44:10.509Z,5.10
2023-02-17T07:46:39.642Z,5.37
2023-02-17T07:49:07.628Z,4.30
2023-02-17T07:51:35.655Z,4.87
2023-02-17T07:54:05.191Z,5.10
2023-02-17T07:56:33.974Z,5.53
2023-02-17T07:59:02.107Z,4.93
2023-02-17T08:01:29.998Z,5.00
2023-02-17T08:03:58.604Z,5.00
2023-02-17T08:06:27.039Z,5.40
2023-02-17T08:09:13.167Z,4.97
2023-02-17T08:12:00.198Z,5.27
2023-02-17T08:14:29.970Z,5.50
2023-02-17T08:16:58.623Z,5.27
2023-02-17T08:19:31.710Z,4.70
2023-02-17T08:22:07.424Z,4.90
2023-02-17T08:24:35.236Z,4.60
2023-02-17T08:27:04.564Z,4.90
2023-02-17T08:29:32.376Z,4.67
2023-02-17T08:32:00.410Z,4.70
2023-02-17T08:34:33.563Z,4.07
2023-02-17T08:37:01.618Z,4.47
2023-02-17T08:39:29.728Z,3.73
2023-02-17T08:41:58.091Z,4.23
2023-02-17T08:44:27.785Z,4.70
2023-02-17T08:46:55.583Z,4.20
2023-02-17T08:49:25.735Z,4.60
2023-02-17T08:51:54.109Z,4.37
2023-02-17T08:54:21.991Z,4.70
2023-02-17T08:56:49.997Z,4.70
2023-02-17T08:59:17.825Z,4.90
2023-02-17T09:01:47.160Z,5.23
2023-02-17T09:04:16.281Z,4.77
2023-02-17T09:06:48.960Z,4.63
2023-02-17T09:09:18.538Z,4.70
2023-02-17T09:11:46.438Z,5.63
2023-02-17T09:14:14.264Z,5.50
2023-02-17T09:16:42.124Z,5.40
2023-02-17T09:19:11.413Z,5.53
2023-02-17T09:21:39.299Z,5.33
2023-02-17T09:24:07.560Z,5.23
2023-02-17T09:26:36.156Z,5.47
2023-02-17T09:29:05.077Z,5.30
2023-02-17T09:31:35.618Z,5.67
2023-02-17T09:34:03.820Z,5.30
2023-02-17T09:36:34.722Z,5.80
2023-02-17T09:39:02.726Z,5.70
2023-02-17T09:41:39.613Z,6.00
2023-02-17T09:44:11.741Z,5.90
2023-02-17T09:46:59.396Z,6.13
2023-02-17T09:49:30.188Z,6.20
2023-02-17T09:52:03.852Z,5.67
2023-02-17T09:54:35.923Z,6.33
2023-02-17T09:57:04.943Z,6.47
2023-02-17T09:59:37.072Z,5.90
2023-02-17T10:02:08.216Z,6.43
2023-02-17T10:04:40.154Z,6.27
2023-02-17T10:07:14.096Z,6.93
2023-02-17T10:09:49.337Z,6.20
2023-02-17T10:12:19.485Z,6.03
2023-02-17T10:14:50.653Z,6.07
2023-02-17T10:17:24.745Z,5.50
2023-02-17T10:19:55.590Z,5.90
2023-02-17T10:22:25.836Z,5.60
2023-02-17T10:24:53.902Z,6.00
2023-02-17T10:27:30.087Z,5.77
2023-02-17T10:30:09.743Z,5.00
2023-02-17T10:32:46.895Z,5.63
2023-02-17T10:35:16.390Z,5.20
2023-02-17T10:37:49.308Z,4.80
2023-02-17T10:40:22.331Z,5.90
2023-02-17T10:42:52.747Z,5.30
2023-02-17T10:45:26.579Z,5.40
2023-02-17T10:47:59.407Z,5.80
2023-02-17T10:50:27.653Z,5.30
2023-02-17T10:52:57.454Z,5.50
2023-02-17T10:55:33.177Z,4.83
2023-02-17T10:58:06.503Z,5.20
2023-02-17T11:00:34.539Z,5.30
2023-02-17T11:03:02.429Z,5.33
2023-02-17T11:05:32.031Z,4.90
2023-02-17T11:08:03.260Z,5.03
2023-02-17T11:10:33.720Z,5.10
2023-02-17T11:13:03.648Z,4.43
2023-02-17T11:15:36.185Z,5.20
2023-02-17T11:18:11.182Z,4.50
2023-02-17T11:20:39.701Z,4.43
2023-02-17T11:23:23.174Z,4.60
2023-02-17T11:26:00.188Z,4.00
2023-02-17T11:28:28.040Z,3.70
2023-02-17T11:30:57.473Z,4.10
2023-02-17T11:33:32.021Z,3.90
2023-02-17T11:36:00.690Z,2.97
2023-02-17T11:38:34.402Z,3.80
2023-02-17T11:41:04.474Z,3.30
2023-02-17T11:43:33.095Z,3.90
2023-02-17T11:46:19.654Z,3.80
2023-02-17T11:48:57.573Z,3.80
2023-02-17T11:51:33.609Z,3.80
2023-02-17T11:54:06.574Z,4.17
2023-02-17T11:56:36.022Z,3.60
2023-02-17T11:59:23.506Z,3.60
2023-02-17T12:02:03.182Z,3.60
2023-02-17T12:04:31.777Z,4.00
2023-02-17T12:07:14.075Z,3.83
2023-02-17T12:09:49.090Z,3.90
2023-02-17T12:12:22.393Z,4.50
2023-02-17T12:15:05.034Z,5.17
2023-02-17T12:17:41.222Z,4.70
2023-02-17T12:20:33.399Z,5.20
2023-02-17T12:23:10.044Z,5.10
2023-02-17T12:25:41.343Z,3.90
2023-02-17T12:28:37.301Z,4.10
2023-02-17T12:31:12.758Z,3.30
2023-02-17T12:33:49.508Z,3.83
2023-02-17T12:36:19.086Z,3.00
2023-02-17T12:38:50.361Z,3.53
2023-02-17T12:41:21.983Z,2.93
2023-02-17T12:43:52.022Z,2.60
2023-02-17T12:46:24.521Z,2.70
2023-02-17T12:48:55.068Z,2.60
2023-02-17T12:51:25.338Z,2.43
2023-02-17T12:53:56.356Z,2.40
2023-02-17T12:56:48.067Z,2.47
2023-02-17T12:59:17.359Z,2.40
2023-02-17T13:01:51.076Z,2.23
2023-02-17T13:04:20.283Z,2.30
2023-02-17T13:06:53.659Z,2.20
2023-02-17T13:09:27.588Z,2.60
2023-02-17T13:12:08.829Z,2.00
2023-02-17T13:14:41.133Z,2.10
2023-02-17T13:17:23.863Z,2.00
2023-02-17T13:20:04.724Z,2.00
2023-02-17T13:22:32.702Z,2.30
2023-02-17T13:25:00.947Z,2.00
2023-02-17T13:27:35.493Z,2.43
2023-02-17T13:30:05.175Z,2.40
2023-02-17T13:32:34.881Z,2.60
2023-02-17T13:35:07.360Z,2.90
2023-02-17T13:37:41.819Z,2.67
2023-02-17T13:40:42.316Z,2.70
2023-02-17T13:43:16.532Z,2.80
2023-02-17T13:45:46.611Z,2.73
2023-02-17T13:48:22.783Z,3.03
2023-02-17T13:50:53.181Z,3.20
2023-02-17T13:53:24.702Z,2.60
2023-02-17T13:55:53.346Z,2.90
2023-02-17T13:58:28.339Z,3.00
2023-02-17T14:00:57.142Z,3.13
2023-02-17T14:03:26.331Z,3.50
2023-02-17T14:05:55.167Z,3.07
2023-02-17T14:08:30.345Z,2.50
2023-02-17T14:10:59.078Z,2.87
2023-02-17T14:13:28.320Z,2.77
2023-02-17T14:15:58.145Z,3.10
2023-02-17T14:18:30.617Z,3.10
2023-02-17T14:21:12.371Z,3.73
2023-02-17T14:23:48.701Z,3.40
2023-02-17T14:26:28.174Z,3.00
2023-02-17T14:28:59.663Z,3.13
2023-02-17T14:31:28.230Z,3.23
2023-02-17T14:34:01.957Z,3.40
2023-02-17T14:36:32.553Z,2.47
2023-02-17T14:39:01.071Z,3.20
2023-02-17T14:41:29.204Z,3.60
2023-02-17T14:43:58.439Z,3.50
2023-02-17T14:46:26.506Z,4.10
2023-02-17T14:48:54.557Z,3.50
2023-02-17T14:51:25.238Z,3.60
2023-02-17T14:53:53.430Z,3.90
2023-02-17T14:56:24.609Z,4.00
2023-02-17T14:58:53.894Z,4.67
2023-02-17T15:01:24.409Z,3.83
2023-02-17T15:03:53.313Z,4.53
2023-02-17T15:06:22.430Z,3.83
2023-02-17T15:08:50.898Z,4.80
2023-02-17T15:11:21.243Z,4.27
2023-02-17T15:13:49.104Z,3.97
2023-02-17T15:16:17.169Z,4.80
2023-02-17T15:18:46.357Z,4.53
2023-02-17T15:21:22.557Z,4.20
2023-02-17T15:23:50.539Z,4.23
2023-02-17T15:26:18.340Z,4.53
2023-02-17T15:28:46.205Z,4.27
2023-02-17T15:31:16.530Z,4.87
2023-02-17T15:33:46.209Z,4.00
2023-02-17T15:36:15.675Z,3.87
2023-02-17T15:38:43.864Z,4.00
2023-02-17T15:41:15.701Z,4.23
2023-02-17T15:43:45.192Z,4.10
2023-02-17T15:46:14.590Z,4.40
2023-02-17T15:48:43.735Z,4.07
2023-02-17T15:51:15.013Z,4.73
2023-02-17T15:53:42.895Z,4.37
2023-02-17T15:56:13.808Z,4.53
2023-02-17T15:58:41.859Z,4.43
2023-02-17T16:01:14.968Z,4.30
2023-02-17T16:03:42.825Z,4.60
2023-02-17T16:06:10.959Z,4.57
2023-02-17T16:08:40.084Z,4.83
2023-02-17T16:11:11.567Z,5.20
2023-02-17T16:13:39.558Z,4.63
2023-02-17T16:16:12.876Z,4.70
2023-02-17T16:18:41.184Z,5.00
2023-02-17T16:21:11.544Z,4.60
2023-02-17T16:23:40.974Z,4.67
2023-02-17T16:26:16.164Z,4.57
2023-02-17T16:28:45.610Z,4.77
2023-02-17T16:31:13.524Z,4.20
2023-02-17T16:33:41.400Z,3.97
2023-02-17T16:36:15.565Z,4.27
2023-02-17T16:38:44.814Z,4.40
2023-02-17T16:41:14.613Z,4.50
2023-02-17T16:43:43.081Z,3.70
2023-02-17T16:46:20.229Z,4.63
2023-02-17T16:48:48.145Z,4.00
2023-02-17T16:51:16.030Z,4.27
2023-02-17T16:53:45.179Z,4.10
2023-02-17T16:56:17.883Z,4.60
2023-02-17T16:58:46.192Z,4.57
2023-02-17T17:01:14.223Z,4.10
2023-02-17T17:03:42.871Z,3.90
2023-02-17T17:06:19.627Z,4.50
2023-02-17T17:08:48.936Z,4.20
2023-02-17T17:11:18.110Z,4.00
2023-02-17T17:13:46.432Z,4.30
2023-02-17T17:16:15.763Z,4.40
2023-02-17T17:18:43.902Z,3.40
2023-02-17T17:21:13.061Z,4.97
2023-02-17T17:23:41.006Z,3.43
2023-02-17T17:26:25.622Z,3.80
2023-02-17T17:28:53.892Z,3.97
2023-02-17T17:31:22.308Z,3.60
2023-02-17T17:33:51.030Z,3.47
2023-02-17T17:36:23.504Z,3.40
2023-02-17T17:38:51.393Z,3.30
2023-02-17T17:41:21.212Z,3.77
2023-02-17T17:43:49.810Z,3.80
2023-02-17T17:46:19.299Z,3.37
2023-02-17T17:48:47.859Z,3.83
2023-02-17T17:51:17.225Z,3.57
2023-02-17T17:53:45.116Z,3.63
2023-02-17T17:56:16.278Z,3.20
2023-02-17T17:58:45.966Z,3.70
2023-02-17T18:01:14.213Z,3.53
2023-02-17T18:03:42.852Z,2.97
2023-02-17T18:06:14.607Z,3.63
2023-02-17T18:08:43.258Z,3.20
2023-02-17T18:11:11.680Z,3.33
2023-02-17T18:13:39.730Z,3.37
2023-02-17T18:16:09.276Z,3.83
2023-02-17T18:18:37.875Z,3.73
2023-02-17T18:21:06.212Z,3.40
2023-02-17T18:23:37.829Z,3.20
2023-02-17T18:26:12.056Z,3.83
2023-02-17T18:28:40.518Z,3.60
2023-02-17T18:31:10.791Z,2.93
2023-02-17T18:33:39.214Z,3.67
2023-02-17T18:36:08.612Z,3.30
2023-02-17T18:38:37.078Z,3.27
2023-02-17T18:41:06.873Z,3.40
2023-02-17T18:43:35.116Z,3.83
2023-02-17T18:46:02.972Z,3.60
2023-02-17T18:48:32.138Z,3.43
2023-02-17T18:51:00.132Z,3.50
2023-02-17T18:53:28.425Z,2.73
2023-02-17T18:55:56.411Z,2.93
2023-02-17T18:58:24.236Z,3.60
2023-02-17T19:00:52.377Z,3.57
2023-02-17T19:03:20.579Z,4.20
2023-02-17T19:05:50.605Z,3.10
2023-02-17T19:08:19.432Z,2.97
2023-02-17T19:10:51.832Z,3.13
2023-02-17T19:13:19.874Z,3.30
2023-02-17T19:15:48.109Z,3.23
2023-02-17T19:18:16.569Z,3.50
2023-02-17T19:20:45.595Z,2.80
2023-02-17T19:23:15.012Z,3.33
2023-02-17T19:25:42.860Z,3.57
2023-02-17T19:28:10.722Z,3.70
2023-02-17T19:30:38.542Z,3.27
2023-02-17T19:33:06.399Z,4.07
2023-02-17T19:35:34.335Z,3.43
2023-02-17T19:38:02.334Z,3.90
2023-02-17T19:40:31.560Z,3.80
2023-02-17T19:43:01.215Z,3.80
2023-02-17T19:45:29.349Z,3.70
2023-02-17T19:47:57.193Z,3.70
2023-02-17T19:50:25.133Z,3.60
2023-02-17T19:52:53.301Z,3.80
2023-02-17T19:55:21.373Z,3.63
2023-02-17T19:57:52.209Z,4.07
2023-02-17T20:00:20.775Z,4.40
2023-02-17T20:02:48.643Z,3.87
2023-02-17T20:05:16.699Z,3.57
2023-02-17T20:07:44.536Z,4.03
2023-02-17T20:10:13.108Z,3.73
2023-02-17T20:12:40.916Z,4.40
2023-02-17T20:15:10.679Z,4.97
2023-02-17T20:17:39.183Z,4.20
2023-02-17T20:20:08.980Z,4.40
2023-02-17T20:22:36.766Z,4.23
2023-02-17T20:25:04.949Z,4.03
2023-02-17T20:27:32.984Z,4.73
2023-02-17T20:30:02.212Z,4.70
2023-02-17T20:32:32.446Z,4.60
2023-02-17T20:35:00.744Z,4.90
2023-02-17T20:37:31.789Z,5.00
2023-02-17T20:40:00.657Z,3.90
2023-02-17T20:42:28.599Z,4.87
2023-02-17T20:44:56.827Z,4.80
2023-02-17T20:47:24.703Z,4.90
2023-02-17T20:49:53.875Z,4.70
2023-02-17T20:52:21.681Z,5.03
2023-02-17T20:54:49.795Z,4.70
2023-02-17T20:57:17.641Z,4.90
2023-02-17T20:59:45.836Z,5.73
2023-02-17T21:02:13.660Z,4.87
2023-02-17T21:04:41.835Z,5.20
2023-02-17T21:07:12.517Z,5.13
2023-02-17T21:09:40.710Z,4.70
2023-02-17T21:12:09.274Z,5.10
2023-02-17T21:14:37.677Z,5.83
2023-02-17T21:17:09.596Z,5.77
2023-02-17T21:19:37.474Z,5.47
2023-02-17T21:22:05.832Z,5.10
2023-02-17T21:24:35.212Z,4.93
2023-02-17T21:27:03.722Z,5.63
2023-02-17T21:29:32.589Z,6.57
2023-02-17T21:32:03.853Z,5.23
2023-02-17T21:34:37.074Z,5.70
2023-02-17T21:37:05.113Z,5.70
2023-02-17T21:39:33.377Z,5.80
2023-02-17T21:42:05.808Z,6.33
2023-02-17T21:44:52.047Z,6.30
2023-02-17T21:47:20.619Z,6.50
2023-02-17T21:49:49.548Z,6.57
2023-02-17T21:52:17.860Z,6.33
2023-02-17T21:54:46.362Z,7.17
2023-02-17T21:57:19.626Z,6.50
2023-02-17T21:59:47.999Z,6.57
2023-02-17T22:02:16.848Z,6.50
2023-02-17T22:04:44.672Z,6.80
2023-02-17T22:07:12.966Z,6.20
2023-02-17T22:09:40.781Z,6.50
2023-02-17T22:12:09.277Z,6.70
2023-02-17T22:14:38.622Z,6.00
2023-02-17T22:17:06.608Z,5.83
2023-02-17T22:19:34.371Z,6.40
2023-02-17T22:22:02.275Z,6.30
2023-02-17T22:24:30.684Z,5.63
2023-02-17T22:26:58.687Z,6.57
2023-02-17T22:29:26.659Z,5.80
2023-02-17T22:31:56.297Z,6.10
2023-02-17T22:34:26.104Z,6.20
2023-02-17T22:36:53.960Z,5.80
2023-02-17T22:39:21.989Z,5.50
2023-02-17T22:41:49.820Z,5.07
2023-02-17T22:44:17.621Z,5.93
2023-02-17T22:46:45.457Z,5.47
2023-02-17T22:49:14.619Z,5.50
2023-02-17T22:51:42.399Z,5.83
2023-02-17T22:54:10.733Z,5.20
2023-02-17T22:56:38.607Z,6.50
2023-02-17T22:59:06.959Z,5.80
2023-02-17T23:01:35.957Z,5.70
2023-02-17T23:04:04.971Z,5.40
2023-02-17T23:06:39.520Z,5.57
2023-02-17T23:09:08.798Z,5.57
2023-02-17T23:11:51.210Z,5.77
2023-02-17T23:14:22.694Z,5.77
2023-02-17T23:16:51.261Z,5.30
2023-02-17T23:19:23.253Z,5.87
2023-02-17T23:21:54.662Z,5.70
2023-02-17T23:24:24.328Z,5.57
2023-02-17T23:26:53.334Z,5.60
2023-02-17T23:29:23.689Z,5.70
2023-02-17T23:31:51.969Z,5.50
2023-02-17T23:34:23.017Z,6.00
2023-02-17T23:36:52.553Z,5.93
2023-02-17T23:39:20.552Z,5.70
2023-02-17T23:41:48.699Z,5.63
2023-02-17T23:44:17.146Z,6.27
2023-02-17T23:46:46.741Z,5.83
2023-02-17T23:49:16.436Z,5.77
2023-02-17T23:51:46.475Z,6.30
2023-02-17T23:54:16.254Z,6.50
2023-02-17T23:56:47.079Z,6.20
2023-02-17T23:59:17.930Z,5.97
